Airfield :
LOGIN :

Register | Disclaimer

   EN    FR    IT 

 










Legend :    VFR   Marginal VFR   IFR   Intensive IFR   Very Intensive IFR
Visi :
Ceiling :
>= 8 km
>= 3000ft
5 to 8 km
1000 to 3000 ft
1500m to 5 km
500 to 1000 ft
800 to 1500m
200 to 500 ft
< 800m
< 200 ft
Symbols :   Thunderstorms  Fog  Heavy snow  Heavy precipitations  Wind > 20 kt
SIGMETs :     Misc.  Thunderstorms  Icing  Turbulence  Mountain Waves  Volcanic Ashes







- Airport Elevation : 12 ft
- IATA code : NCE
- Download approach charts


LFMN - Nice

CURRENT METAR :
  • 151300Z 12009KT 9999 FEW033 SCT260 18/12 Q1023 NOSIG

EXPIRED METARs :
  • 151230Z 10009KT 9999 FEW033 SCT260 18/11 Q1023 NOSIG
  • 151200Z 10010KT 9999 SCT033 SCT260 18/12 Q1023 NOSIG
  • 151130Z 10012KT 9999 SCT033 SCT260 18/12 Q1024 NOSIG
  • 151100Z 09010KT 9999 SCT033 SCT260 18/12 Q1024 NOSIG
  • 151030Z 10010KT 9999 SCT030 SCT260 18/12 Q1024 NOSIG

TAF TAF LFMN
Valid from the 15 at 09:00 until the 16 at 15:00 UTC


150800Z 1509/1615 34010KT 9999 FEW030
BECMG 1510/1512 12010KT
BECMG 1517/1519 34010KT CAVOK
BECMG 1611/1613 12010KT
ATIS : +33 4 93 17 21 16
No reported NOTAMs for that airfield.



MET'MAP, your aeronautical weather chart ! - Copyright ORBIFLY December 2007 - Disclaimer

ORBIFLY MET'MAP TEAM :

Programming & Development : Alexandra Zaïnal
Concept & Development : Baudouin d'Aumeries
Co-Development & Prog : Marc-Olivier Méhu
Technical & hardware support : Manuel Goepfert

Contact : metmap@orbifly.com




SOURCES & CREDITS :

   NOAA